Time;durP1;ratioP1;P1;durP2;ratioP2;P2;SDS_P1;SDS_P2;PMS_P1;PMS_P2;Temp;Humidity;BMP_temperature;BMP_pressure;BME280_temperature;BME280_humidity;BME280_pressure;Samples;Min_cycle;Max_cycle;Signal;HPM_P1;HPM_P2
2024/01/17 00:01:15;;;;;;;10.52;5.15;;;-1.30;99.90;;;;;;5109905;28;20350;-61
2024/01/17 00:03:41;;;;;;;8.32;4.70;;;-1.30;99.90;;;;;;5109895;28;20176;-62
2024/01/17 00:06:06;;;;;;;8.07;4.90;;;-1.30;99.90;;;;;;5110663;28;20583;-59
2024/01/17 00:08:32;;;;;;;7.13;4.53;;;-1.40;99.90;;;;;;5110440;28;20255;-59
2024/01/17 00:10:57;;;;;;;9.60;4.40;;;-1.40;99.90;;;;;;5110062;28;20192;-58
2024/01/17 00:13:23;;;;;;;11.32;4.35;;;-1.40;99.90;;;;;;5110041;28;20572;-49
2024/01/17 00:15:49;;;;;;;7.85;4.72;;;-1.50;99.90;;;;;;5109917;28;20554;-49
2024/01/17 00:18:15;;;;;;;10.55;4.60;;;-1.50;99.90;;;;;;5110006;28;20199;-49
2024/01/17 00:20:40;;;;;;;8.45;4.38;;;-1.50;99.90;;;;;;5109990;28;20282;-49
2024/01/17 00:23:06;;;;;;;12.85;5.20;;;-1.40;99.90;;;;;;5110508;28;20172;-48
2024/01/17 00:25:31;;;;;;;16.27;6.93;;;-1.30;99.90;;;;;;5110072;28;20192;-48
2024/01/17 00:27:57;;;;;;;15.23;6.97;;;-1.30;99.90;;;;;;5109964;28;20620;-54
2024/01/17 00:30:23;;;;;;;15.13;7.22;;;-1.30;99.90;;;;;;5109856;28;20580;-51
2024/01/17 00:32:48;;;;;;;12.77;5.55;;;-1.20;99.90;;;;;;5110117;28;20251;-49
2024/01/17 00:35:14;;;;;;;10.40;6.00;;;-1.20;99.90;;;;;;5109967;28;20688;-48
2024/01/17 00:37:39;;;;;;;9.02;5.40;;;-1.10;99.90;;;;;;5109624;28;20201;-48
2024/01/17 00:40:05;;;;;;;9.70;5.97;;;-1.20;99.90;;;;;;5109805;28;20585;-48
2024/01/17 00:42:31;;;;;;;15.20;7.45;;;-1.30;99.90;;;;;;5109575;28;20169;-48
2024/01/17 00:44:57;;;;;;;12.20;6.82;;;-1.30;99.90;;;;;;5109713;28;20246;-48
2024/01/17 00:47:23;;;;;;;12.15;6.95;;;-1.30;99.90;;;;;;5109712;28;20173;-49
2024/01/17 00:49:48;;;;;;;12.48;6.65;;;-1.30;99.90;;;;;;5109769;28;20161;-49
2024/01/17 00:52:14;;;;;;;12.00;5.97;;;-1.30;99.90;;;;;;5109305;28;20256;-48
2024/01/17 00:54:39;;;;;;;8.27;5.15;;;-1.30;99.90;;;;;;5109744;28;20393;-48
2024/01/17 00:57:05;;;;;;;9.63;5.28;;;-1.30;99.90;;;;;;5110246;28;20299;-48
2024/01/17 00:59:30;;;;;;;8.48;5.63;;;-1.30;99.90;;;;;;5110349;28;20260;-49
2024/01/17 01:01:56;;;;;;;9.95;5.55;;;-1.40;99.90;;;;;;5113140;28;20161;-49
2024/01/17 01:04:21;;;;;;;12.88;5.68;;;-1.40;99.90;;;;;;5113180;28;20259;-48
2024/01/17 01:06:47;;;;;;;8.70;5.55;;;-1.50;99.90;;;;;;5113410;28;20532;-48
2024/01/17 01:09:12;;;;;;;13.57;5.45;;;-1.40;99.90;;;;;;5113348;28;20646;-48
2024/01/17 01:11:38;;;;;;;13.43;5.60;;;-1.40;99.90;;;;;;5113781;28;20580;-49
2024/01/17 01:14:04;;;;;;;8.50;5.60;;;1.10;99.90;;;;;;5113717;28;20534;-48
2024/01/17 01:16:29;;;;;;;7.80;5.10;;;-1.50;99.90;;;;;;5112922;28;20228;-49
2024/01/17 01:18:55;;;;;;;8.82;4.45;;;-1.50;99.90;;;;;;5113108;28;20226;-48
2024/01/17 01:21:20;;;;;;;8.77;4.97;;;-1.60;99.90;;;;;;5113052;28;20169;-49
2024/01/17 01:23:46;;;;;;;9.23;5.50;;;-1.50;99.90;;;;;;5113265;28;20233;-48
2024/01/17 01:26:14;;;;;;;12.02;4.63;;;-1.50;99.90;;;;;;5113007;28;20172;-51
2024/01/17 01:28:39;;;;;;;11.18;4.72;;;-1.50;99.90;;;;;;5112732;28;20168;-48
2024/01/17 01:31:05;;;;;;;12.15;6.03;;;-1.50;99.90;;;;;;5113167;28;20156;-48
2024/01/17 01:33:30;;;;;;;9.57;5.20;;;-1.40;99.90;;;;;;5112931;28;20195;-48
2024/01/17 01:35:56;;;;;;;9.30;5.18;;;-1.40;99.90;;;;;;5112858;28;20173;-48
2024/01/17 01:38:22;;;;;;;7.78;4.68;;;-1.30;99.90;;;;;;5112813;28;20207;-48
2024/01/17 01:40:47;;;;;;;9.15;4.90;;;-1.30;99.90;;;;;;5112751;28;20175;-49
2024/01/17 01:43:23;;;;;;;8.43;4.97;;;-1.30;99.90;;;;;;5112501;28;20663;-50
2024/01/17 01:46:03;;;;;;;11.27;4.65;;;-1.40;99.90;;;;;;5112666;28;20504;-53
2024/01/17 01:48:30;;;;;;;9.02;5.03;;;-1.40;99.90;;;;;;5112594;28;20177;-49
2024/01/17 01:50:57;;;;;;;8.15;5.18;;;-1.40;99.90;;;;;;5112576;28;20199;-54
2024/01/17 01:53:24;;;;;;;10.80;5.13;;;-1.40;99.90;;;;;;5112482;28;20200;-49
2024/01/17 01:55:50;;;;;;;10.55;4.55;;;-1.40;99.90;;;;;;5111996;28;20232;-51
2024/01/17 01:58:18;;;;;;;10.93;4.65;;;-1.50;99.90;;;;;;5112135;28;20201;-50
2024/01/17 02:00:44;;;;;;;12.70;5.25;;;-1.50;99.90;;;;;;5112190;28;20168;-49
2024/01/17 02:03:10;;;;;;;10.82;5.50;;;-1.50;99.90;;;;;;5112392;28;20168;-49
2024/01/17 02:05:35;;;;;;;10.73;4.80;;;-1.50;99.90;;;;;;5112822;28;20165;-49
2024/01/17 02:08:02;;;;;;;9.95;5.43;;;-1.50;99.90;;;;;;5112180;28;20169;-48
2024/01/17 02:10:27;;;;;;;6.28;4.55;;;-1.40;99.90;;;;;;5111959;28;20165;-49
2024/01/17 02:12:54;;;;;;;11.60;5.57;;;-1.40;99.90;;;;;;5112006;28;20175;-49
2024/01/17 02:15:19;;;;;;;12.82;5.22;;;-1.40;99.90;;;;;;5112307;28;20159;-53
2024/01/17 02:17:45;;;;;;;9.40;6.38;;;-1.30;99.90;;;;;;5112059;28;20540;-54
2024/01/17 02:20:11;;;;;;;7.28;4.63;;;-1.40;99.90;;;;;;5111960;28;20208;-56
2024/01/17 02:22:36;;;;;;;11.00;4.95;;;-1.40;99.90;;;;;;5112503;28;20179;-49
2024/01/17 02:25:05;;;;;;;12.07;5.63;;;-1.40;99.90;;;;;;5111588;28;20176;-48
2024/01/17 02:27:30;;;;;;;11.95;5.40;;;-1.30;99.90;;;;;;5111910;28;20173;-49
2024/01/17 02:29:57;;;;;;;10.90;6.65;;;-1.30;99.90;;;;;;5111473;28;20576;-50
2024/01/17 02:32:23;;;;;;;8.90;5.25;;;-1.30;99.90;;;;;;5111782;28;20523;-48
2024/01/17 02:34:49;;;;;;;9.00;4.72;;;-1.30;99.90;;;;;;5111749;28;20616;-49
2024/01/17 02:37:15;;;;;;;8.15;4.85;;;-1.40;99.90;;;;;;5111606;28;20200;-55
2024/01/17 02:39:40;;;;;;;9.48;5.70;;;-1.40;99.90;;;;;;5111623;28;20513;-49
2024/01/17 02:42:06;;;;;;;12.23;5.55;;;-1.40;99.90;;;;;;5111886;28;20168;-49
2024/01/17 02:44:31;;;;;;;15.27;6.38;;;-1.40;99.90;;;;;;5111074;28;20172;-50
2024/01/17 02:46:57;;;;;;;11.98;5.85;;;-1.50;99.90;;;;;;5111130;28;20624;-51
2024/01/17 02:49:23;;;;;;;9.88;5.35;;;-1.50;99.90;;;;;;5111017;28;20660;-54
2024/01/17 02:51:48;;;;;;;9.90;5.55;;;-1.50;99.90;;;;;;5110958;28;20172;-58
2024/01/17 02:54:14;;;;;;;9.63;6.32;;;-1.40;99.90;;;;;;5110807;28;20628;-51
2024/01/17 02:56:39;;;;;;;13.57;7.28;;;-1.40;99.90;;;;;;5110657;28;20229;-56
2024/01/17 02:59:06;;;;;;;15.95;6.70;;;-1.40;99.90;;;;;;5111301;28;20246;-51
2024/01/17 03:01:33;;;;;;;20.05;7.05;;;-1.40;99.90;;;;;;5111036;28;20168;-59
2024/01/17 03:03:58;;;;;;;13.98;7.22;;;-1.40;99.90;;;;;;5110872;28;20301;-51
2024/01/17 03:06:24;;;;;;;17.70;7.97;;;-1.40;99.90;;;;;;5110783;28;20244;-52
2024/01/17 03:08:49;;;;;;;19.23;7.40;;;-1.40;99.90;;;;;;5110665;28;20168;-50
2024/01/17 03:11:15;;;;;;;10.85;6.47;;;-1.40;99.90;;;;;;5110645;28;20161;-49
2024/01/17 03:13:40;;;;;;;12.13;6.80;;;-1.50;99.90;;;;;;5110558;28;20177;-52
2024/01/17 03:16:06;;;;;;;11.30;6.88;;;-1.50;99.90;;;;;;5110945;28;20157;-56
2024/01/17 03:18:32;;;;;;;14.27;6.40;;;-1.60;99.90;;;;;;5110615;28;20208;-51
2024/01/17 03:20:58;;;;;;;9.40;6.47;;;-1.60;99.90;;;;;;5110512;28;21030;-51
2024/01/17 03:23:23;;;;;;;13.93;6.95;;;-1.60;99.90;;;;;;5109992;28;20165;-51
2024/01/17 03:25:49;;;;;;;14.55;7.22;;;-1.50;99.90;;;;;;5109600;28;20229;-49
2024/01/17 03:28:14;;;;;;;12.45;7.07;;;-1.60;99.90;;;;;;5110487;28;20165;-49
2024/01/17 03:30:40;;;;;;;11.52;6.35;;;-1.70;99.90;;;;;;5110275;28;20620;-48
2024/01/17 03:33:05;;;;;;;12.60;6.97;;;-1.70;99.90;;;;;;5110791;28;20168;-56
2024/01/17 03:35:31;;;;;;;10.07;7.03;;;-1.70;99.90;;;;;;5110176;28;20164;-54
2024/01/17 03:37:57;;;;;;;14.48;8.07;;;-1.70;99.90;;;;;;5110007;28;20296;-55
2024/01/17 03:40:23;;;;;;;12.90;7.90;;;-1.60;99.90;;;;;;5110481;28;20189;-54
2024/01/17 03:42:49;;;;;;;13.85;7.75;;;-1.60;99.90;;;;;;5110040;28;20165;-49
2024/01/17 03:45:14;;;;;;;17.75;7.38;;;-1.60;99.90;;;;;;5110051;28;20232;-49
2024/01/17 03:47:40;;;;;;;16.40;7.38;;;-1.70;99.90;;;;;;5110009;28;20169;-50
2024/01/17 03:50:06;;;;;;;11.38;7.78;;;-1.70;99.90;;;;;;5110640;28;20227;-49
2024/01/17 03:52:31;;;;;;;21.88;9.43;;;-1.70;99.90;;;;;;5110314;27;20161;-48
2024/01/17 03:54:57;;;;;;;13.43;6.82;;;-1.70;99.90;;;;;;5109981;28;20168;-49
2024/01/17 03:57:23;;;;;;;16.63;7.68;;;-1.60;99.90;;;;;;5109781;28;20557;-49
2024/01/17 03:59:48;;;;;;;18.42;8.88;;;-1.70;99.90;;;;;;5073282;28;20181;-49
2024/01/17 04:02:14;;;;;;;15.55;8.65;;;-1.70;99.90;;;;;;5069404;28;20177;-49
2024/01/17 04:04:40;;;;;;;22.30;8.70;;;-1.70;99.90;;;;;;5069211;28;20173;-48
2024/01/17 04:07:09;;;;;;;13.00;8.55;;;-1.70;99.90;;;;;;5069906;28;20212;-49
2024/01/17 04:09:35;;;;;;;19.50;8.23;;;-1.70;99.90;;;;;;5069612;28;20169;-51
2024/01/17 04:12:01;;;;;;;16.98;7.82;;;-1.70;99.90;;;;;;5069128;28;20575;-49
2024/01/17 04:14:26;;;;;;;19.85;7.90;;;-1.70;99.90;;;;;;5069319;28;20216;-49
2024/01/17 04:16:52;;;;;;;13.57;8.07;;;-1.70;99.90;;;;;;5069078;28;20235;-49
2024/01/17 04:19:17;;;;;;;14.73;8.00;;;-1.70;99.90;;;;;;5069406;28;20174;-50
2024/01/17 04:21:43;;;;;;;13.88;7.53;;;-1.70;99.90;;;;;;5069096;28;20166;-49
2024/01/17 04:24:08;;;;;;;14.07;8.25;;;-1.70;99.90;;;;;;5069246;28;20216;-48
2024/01/17 04:26:34;;;;;;;14.18;8.48;;;-1.70;99.90;;;;;;5069951;28;20166;-54
2024/01/17 04:29:00;;;;;;;15.63;9.20;;;-1.70;99.90;;;;;;5069252;28;20496;-49
2024/01/17 04:31:28;;;;;;;14.88;7.53;;;-1.60;99.90;;;;;;5087297;28;20565;-49
2024/01/17 04:33:54;;;;;;;18.38;9.00;;;-1.60;99.90;;;;;;5110822;28;20168;-50
2024/01/17 04:36:21;;;;;;;15.32;7.40;;;-1.60;99.90;;;;;;5113723;28;20570;-55
2024/01/17 04:38:46;;;;;;;15.93;7.28;;;-1.60;99.90;;;;;;5113812;28;20531;-49
2024/01/17 04:41:13;;;;;;;15.45;8.77;;;-1.60;99.90;;;;;;5113821;28;20161;-50
2024/01/17 04:43:44;;;;;;;14.63;7.50;;;-1.50;99.90;;;;;;5113525;28;20302;-53
2024/01/17 04:46:12;;;;;;;12.73;8.32;;;-1.70;99.90;;;;;;5114040;28;20200;-52
2024/01/17 04:48:39;;;;;;;10.77;7.25;;;-1.60;99.90;;;;;;5114214;28;20168;-54
2024/01/17 04:51:05;;;;;;;17.83;9.48;;;-1.70;99.90;;;;;;5114473;28;20241;-50
2024/01/17 04:53:32;;;;;;;18.03;8.17;;;-1.60;99.90;;;;;;5113351;28;20278;-52
2024/01/17 04:55:59;;;;;;;17.27;7.95;;;-1.60;99.90;;;;;;5113257;28;20278;-52
2024/01/17 04:58:25;;;;;;;18.45;8.98;;;-1.60;99.90;;;;;;5113096;28;20211;-52
2024/01/17 05:00:51;;;;;;;19.98;8.65;;;-1.60;99.90;;;;;;5113436;28;20169;-54
2024/01/17 05:03:17;;;;;;;17.47;8.93;;;-1.70;99.90;;;;;;5113477;28;20241;-56
2024/01/17 05:05:43;;;;;;;19.25;10.65;;;-1.70;99.90;;;;;;5113502;28;20244;-50
2024/01/17 05:08:10;;;;;;;17.90;10.05;;;-1.70;99.90;;;;;;5113429;28;20166;-56
2024/01/17 05:10:35;;;;;;;15.07;8.88;;;-1.60;99.90;;;;;;5113587;28;20530;-49
2024/01/17 05:13:01;;;;;;;19.27;9.50;;;-1.60;99.90;;;;;;5113070;28;20243;-54
2024/01/17 05:15:26;;;;;;;16.27;9.18;;;-1.60;99.90;;;;;;5113066;28;20199;-54
2024/01/17 05:17:52;;;;;;;19.35;10.00;;;-1.60;99.90;;;;;;5113063;28;20201;-51
2024/01/17 05:20:17;;;;;;;15.52;9.18;;;-1.60;99.90;;;;;;5112890;28;20519;-50
2024/01/17 05:22:43;;;;;;;16.08;9.55;;;-1.60;99.90;;;;;;5112664;28;20627;-53
2024/01/17 05:25:11;;;;;;;17.13;8.68;;;-1.50;99.90;;;;;;5113007;28;20169;-48
2024/01/17 05:27:37;;;;;;;15.52;7.95;;;-1.50;99.90;;;;;;5113474;28;20177;-59
2024/01/17 05:30:04;;;;;;;18.88;9.27;;;-1.50;99.90;;;;;;5113037;28;20226;-52
2024/01/17 05:32:30;;;;;;;16.85;9.65;;;-1.50;99.90;;;;;;5112696;28;20266;-50
2024/01/17 05:34:56;;;;;;;19.38;9.60;;;-1.50;99.90;;;;;;5112724;28;20271;-53
2024/01/17 05:37:23;;;;;;;15.80;9.18;;;-1.50;99.90;;;;;;5112829;28;20242;-50
2024/01/17 05:39:49;;;;;;;13.82;8.80;;;-1.50;99.90;;;;;;5112644;28;20214;-50
2024/01/17 05:42:14;;;;;;;13.88;8.75;;;-1.50;99.90;;;;;;5112435;28;20172;-49
2024/01/17 05:44:40;;;;;;;16.40;8.85;;;-1.50;99.90;;;;;;5112544;28;20255;-54
2024/01/17 05:47:05;;;;;;;16.90;8.75;;;-1.50;99.90;;;;;;5112070;28;20655;-50
2024/01/17 05:49:31;;;;;;;25.98;11.73;;;-1.50;99.90;;;;;;5112172;28;20746;-59
2024/01/17 05:51:57;;;;;;;21.92;11.13;;;-1.50;99.90;;;;;;5112203;28;20550;-59
2024/01/17 05:54:22;;;;;;;19.23;8.18;;;-1.40;99.90;;;;;;5111952;28;20176;-59
2024/01/17 05:56:48;;;;;;;12.60;8.52;;;-1.50;99.90;;;;;;5111833;28;20216;-59
2024/01/17 05:59:14;;;;;;;17.75;9.52;;;-1.50;99.90;;;;;;5112057;28;20164;-58
2024/01/17 06:01:39;;;;;;;17.90;10.05;;;-1.50;99.90;;;;;;5111942;28;20306;-59
2024/01/17 06:04:05;;;;;;;21.58;9.80;;;-1.50;99.90;;;;;;5112843;28;20175;-57
2024/01/17 06:06:30;;;;;;;28.33;12.77;;;-1.40;99.90;;;;;;5112226;28;20644;-55
2024/01/17 06:08:56;;;;;;;20.10;9.13;;;-1.40;99.90;;;;;;5112340;28;20173;-60
2024/01/17 06:11:21;;;;;;;20.27;10.35;;;-1.30;99.90;;;;;;5111902;28;20529;-59
2024/01/17 06:13:48;;;;;;;17.05;9.25;;;-1.40;99.90;;;;;;5111664;28;20177;-58
2024/01/17 06:16:14;;;;;;;20.67;9.30;;;-1.40;99.90;;;;;;5111995;28;20251;-54
2024/01/17 06:18:39;;;;;;;16.23;9.48;;;-1.40;99.90;;;;;;5111653;28;20735;-56
2024/01/17 06:21:05;;;;;;;16.55;9.25;;;-1.30;99.90;;;;;;5112523;28;20157;-56
2024/01/17 06:23:30;;;;;;;20.00;10.32;;;-1.30;99.90;;;;;;5112035;28;20612;-58
2024/01/17 06:25:57;;;;;;;18.52;9.95;;;-1.30;99.90;;;;;;5112194;28;20172;-56
2024/01/17 06:28:22;;;;;;;16.33;8.95;;;-1.30;99.90;;;;;;5111676;28;20225;-56
2024/01/17 06:30:48;;;;;;;18.65;10.30;;;-1.30;99.90;;;;;;5110531;28;20300;-56
2024/01/17 06:33:13;;;;;;;24.95;10.73;;;-1.30;99.90;;;;;;5111418;28;20507;-55
2024/01/17 06:35:39;;;;;;;26.63;11.27;;;-1.30;99.90;;;;;;5110946;28;20196;-60
2024/01/17 06:38:05;;;;;;;22.95;11.48;;;-1.20;99.90;;;;;;5111762;28;20240;-60
2024/01/17 06:40:30;;;;;;;22.63;11.48;;;-1.20;99.90;;;;;;5109798;28;20554;-58
2024/01/17 06:42:56;;;;;;;18.23;10.07;;;-1.20;99.90;;;;;;5111220;28;20165;-58
2024/01/17 06:45:21;;;;;;;14.27;8.45;;;-1.30;99.90;;;;;;5111036;28;20218;-59
2024/01/17 06:47:47;;;;;;;23.77;11.82;;;-1.20;99.90;;;;;;5110976;28;20173;-59
2024/01/17 06:50:14;;;;;;;19.23;9.68;;;-1.20;99.90;;;;;;5111048;28;20278;-56
2024/01/17 06:52:39;;;;;;;18.33;8.52;;;-1.20;99.90;;;;;;5109866;28;20187;-55
2024/01/17 06:55:05;;;;;;;16.88;9.82;;;-1.20;99.90;;;;;;5109475;28;20165;-59
2024/01/17 06:57:31;;;;;;;21.73;10.38;;;-1.20;99.90;;;;;;5109913;28;20228;-55
2024/01/17 06:59:56;;;;;;;19.77;7.97;;;-1.10;99.90;;;;;;5110986;28;20220;-60
2024/01/17 07:02:22;;;;;;;20.90;9.10;;;-1.10;99.90;;;;;;5111374;28;20180;-55
2024/01/17 07:04:47;;;;;;;13.57;8.30;;;-1.10;99.90;;;;;;5109546;28;20345;-55
2024/01/17 07:07:13;;;;;;;13.65;8.23;;;-1.10;99.90;;;;;;5110752;28;20257;-55
2024/01/17 07:09:39;;;;;;;12.40;8.13;;;-1.10;99.90;;;;;;5110797;28;20188;-60
2024/01/17 07:12:05;;;;;;;17.83;8.20;;;-1.10;99.90;;;;;;5111330;28;20172;-54
2024/01/17 07:14:31;;;;;;;17.35;8.88;;;-1.20;99.90;;;;;;5110726;28;20256;-60
2024/01/17 07:16:57;;;;;;;19.00;9.30;;;-1.20;99.90;;;;;;5110672;28;20279;-61
2024/01/17 07:19:23;;;;;;;27.80;11.48;;;-1.10;99.90;;;;;;5110309;28;20639;-57
2024/01/17 07:21:48;;;;;;;12.98;7.72;;;-1.10;99.90;;;;;;5110687;28;20176;-49
2024/01/17 07:24:14;;;;;;;25.05;12.60;;;-1.10;99.90;;;;;;5110777;28;20167;-49
2024/01/17 07:26:39;;;;;;;21.55;11.02;;;-1.10;99.90;;;;;;5110395;28;20527;-48
2024/01/17 07:29:05;;;;;;;17.90;8.98;;;-1.10;99.90;;;;;;5110992;28;20172;-52
2024/01/17 07:31:31;;;;;;;17.00;8.13;;;-1.10;99.90;;;;;;5110243;28;20527;-50
2024/01/17 07:33:56;;;;;;;21.10;10.20;;;-1.10;99.90;;;;;;5110497;28;20204;-48
2024/01/17 07:36:22;;;;;;;22.75;10.20;;;-1.00;99.90;;;;;;5110550;28;20198;-50
2024/01/17 07:38:48;;;;;;;18.70;9.75;;;-1.00;99.90;;;;;;5110461;28;20214;-53
2024/01/17 07:41:14;;;;;;;15.63;8.25;;;-0.90;99.90;;;;;;5110089;28;20164;-49
2024/01/17 07:43:39;;;;;;;17.90;8.15;;;-0.90;99.90;;;;;;5110109;28;20247;-56
2024/01/17 07:46:05;;;;;;;18.23;8.77;;;-0.90;99.90;;;;;;5108108;28;20190;-48
2024/01/17 07:48:31;;;;;;;15.20;8.88;;;-0.90;99.90;;;;;;5110286;28;20187;-50
2024/01/17 07:50:57;;;;;;;20.23;9.57;;;-0.80;99.90;;;;;;5110419;28;20628;-51
2024/01/17 07:53:24;;;;;;;21.20;10.27;;;-0.80;99.90;;;;;;5110376;28;20623;-49
2024/01/17 07:55:49;;;;;;;16.65;8.88;;;-0.80;99.90;;;;;;5110269;28;20228;-48
2024/01/17 07:58:16;;;;;;;15.38;8.90;;;-0.80;99.90;;;;;;5110074;28;20207;-51
2024/01/17 08:00:42;;;;;;;21.52;10.50;;;-0.80;99.90;;;;;;5109988;28;20175;-50
2024/01/17 08:03:07;;;;;;;16.15;8.38;;;-0.70;99.90;;;;;;5109050;28;20520;-48
2024/01/17 08:05:33;;;;;;;16.02;8.02;;;2.10;99.90;;;;;;5110145;28;20701;-49
2024/01/17 08:07:59;;;;;;;15.88;8.60;;;-0.70;99.90;;;;;;5107061;28;20199;-49
2024/01/17 08:10:25;;;;;;;14.93;7.03;;;-0.60;99.90;;;;;;5109821;28;20157;-50
2024/01/17 08:12:51;;;;;;;15.40;6.82;;;-0.60;99.90;;;;;;5110222;28;20256;-50
2024/01/17 08:15:17;;;;;;;17.60;7.50;;;-0.60;99.90;;;;;;5110097;28;20256;-49
2024/01/17 08:17:44;;;;;;;9.60;6.70;;;-0.60;99.90;;;;;;5110209;28;20208;-49
2024/01/17 08:20:12;;;;;;;12.23;6.68;;;-0.60;99.90;;;;;;5109816;28;20161;-51
2024/01/17 08:22:39;;;;;;;14.10;6.40;;;-0.60;99.90;;;;;;5110730;28;20176;-51
2024/01/17 08:25:04;;;;;;;15.38;7.25;;;-0.60;99.90;;;;;;5110473;28;20157;-51
2024/01/17 08:27:30;;;;;;;13.60;7.72;;;-0.60;99.90;;;;;;5109872;28;20157;-55
2024/01/17 08:29:55;;;;;;;15.43;6.78;;;-0.50;99.90;;;;;;5109561;28;20195;-50
2024/01/17 08:32:21;;;;;;;12.77;7.47;;;-0.50;99.90;;;;;;5109810;28;20164;-49
2024/01/17 08:34:47;;;;;;;17.67;8.10;;;-0.40;99.90;;;;;;5109893;28;20192;-56
2024/01/17 08:37:13;;;;;;;12.85;7.47;;;-0.40;99.90;;;;;;5109666;28;20291;-45
2024/01/17 08:39:41;;;;;;;12.48;6.47;;;-0.40;99.90;;;;;;5109656;28;20251;-42
2024/01/17 08:42:07;;;;;;;15.50;7.53;;;-0.40;99.90;;;;;;5110513;28;20271;-52
2024/01/17 08:44:33;;;;;;;16.80;7.65;;;-0.30;99.90;;;;;;5110171;28;20255;-44
2024/01/17 08:46:58;;;;;;;15.52;7.93;;;-0.30;99.90;;;;;;5109851;28;20181;-50
2024/01/17 08:49:24;;;;;;;16.58;7.95;;;-0.30;99.90;;;;;;5109373;28;20524;-48
2024/01/17 08:51:50;;;;;;;13.75;7.07;;;-0.30;99.90;;;;;;5109406;28;20184;-52
2024/01/17 08:54:16;;;;;;;12.55;6.78;;;-0.30;99.90;;;;;;5109059;28;20612;-52
2024/01/17 08:56:42;;;;;;;13.55;7.40;;;-0.20;99.90;;;;;;5108834;28;20228;-52
2024/01/17 08:59:07;;;;;;;23.10;11.65;;;-0.20;99.90;;;;;;5107756;28;20187;-52
2024/01/17 09:01:33;;;;;;;20.92;11.80;;;-0.20;99.90;;;;;;5109676;28;20165;-52
2024/01/17 09:03:59;;;;;;;11.88;8.13;;;-0.20;99.90;;;;;;5107741;28;20226;-55
2024/01/17 09:06:24;;;;;;;13.82;8.13;;;-0.10;99.90;;;;;;5109579;28;20188;-54
2024/01/17 09:08:50;;;;;;;13.02;6.85;;;-0.20;99.90;;;;;;5109645;28;20168;-53
2024/01/17 09:11:15;;;;;;;11.85;7.07;;;-0.20;99.90;;;;;;5109641;28;20257;-55
2024/01/17 09:13:42;;;;;;;16.85;7.65;;;-0.10;99.90;;;;;;5109388;28;20185;-55
2024/01/17 09:16:07;;;;;;;12.32;7.28;;;-0.10;99.90;;;;;;5109530;28;20708;-53
2024/01/17 09:18:33;;;;;;;11.93;7.30;;;-0.10;99.90;;;;;;5109764;28;20205;-55
2024/01/17 09:20:58;;;;;;;19.42;9.50;;;-0.10;99.90;;;;;;5110761;28;20169;-55
2024/01/17 09:23:24;;;;;;;17.33;8.85;;;-0.10;99.90;;;;;;5113135;28;20172;-55
2024/01/17 09:25:49;;;;;;;12.30;7.43;;;0.00;99.90;;;;;;5113110;28;20625;-55
2024/01/17 09:28:15;;;;;;;15.45;8.38;;;0.00;99.90;;;;;;5113197;28;20186;-56
2024/01/17 09:30:40;;;;;;;16.02;8.57;;;0.00;99.90;;;;;;5112736;28;20172;-55
2024/01/17 09:33:06;;;;;;;13.85;7.63;;;0.00;99.90;;;;;;5113356;28;20175;-53
2024/01/17 09:35:35;;;;;;;16.65;7.28;;;0.10;99.90;;;;;;5112820;28;20168;-54
2024/01/17 09:38:01;;;;;;;27.13;9.32;;;0.10;99.90;;;;;;5112815;28;20214;-55
2024/01/17 09:40:26;;;;;;;12.65;6.72;;;0.20;99.90;;;;;;5111246;28;20173;-52
2024/01/17 09:42:53;;;;;;;17.30;8.60;;;0.10;99.90;;;;;;5112715;28;20242;-55
2024/01/17 09:45:20;;;;;;;20.40;11.07;;;0.10;99.90;;;;;;5111664;28;20165;-53
2024/01/17 09:47:48;;;;;;;35.67;18.15;;;0.10;99.90;;;;;;5112452;28;20215;-54
2024/01/17 09:50:14;;;;;;;46.78;24.67;;;0.20;99.90;;;;;;5110939;28;20533;-53
2024/01/17 09:52:41;;;;;;;26.52;13.48;;;0.30;99.90;;;;;;5112539;28;20172;-52
2024/01/17 09:55:08;;;;;;;20.00;11.18;;;0.30;99.90;;;;;;5112086;28;20794;-54
2024/01/17 09:57:41;;;;;;;25.10;11.98;;;0.30;99.90;;;;;;5112576;28;20274;-54
2024/01/17 10:00:09;;;;;;;20.95;11.02;;;0.40;99.90;;;;;;5112776;28;20213;-52
2024/01/17 10:02:38;;;;;;;19.40;8.82;;;0.40;99.90;;;;;;5112419;28;20658;-53
2024/01/17 10:05:07;;;;;;;40.53;23.30;;;0.40;99.90;;;;;;5113064;28;20175;-52
2024/01/17 10:07:33;;;;;;;27.67;15.38;;;0.40;99.90;;;;;;5112567;28;20165;-53
2024/01/17 10:09:58;;;;;;;28.08;10.50;;;0.40;99.90;;;;;;5112165;28;20184;-53
2024/01/17 10:12:25;;;;;;;23.10;11.55;;;0.40;99.90;;;;;;5112146;28;20238;-53
2024/01/17 10:14:50;;;;;;;21.23;11.73;;;0.50;99.90;;;;;;5112351;28;20177;-54
2024/01/17 10:17:16;;;;;;;27.88;13.05;;;0.50;99.90;;;;;;5112267;28;20286;-53
2024/01/17 10:19:42;;;;;;;21.65;10.52;;;0.50;99.90;;;;;;5110681;28;20218;-53
2024/01/17 10:22:11;;;;;;;21.58;12.15;;;0.50;99.90;;;;;;5112463;28;20164;-53
2024/01/17 10:24:38;;;;;;;31.70;15.98;;;0.50;99.90;;;;;;5112683;28;20173;-53
2024/01/17 10:27:06;;;;;;;17.20;8.50;;;0.50;99.90;;;;;;5110875;28;20172;-53
2024/01/17 10:29:32;;;;;;;25.42;11.00;;;0.40;99.90;;;;;;5111410;28;20167;-53
2024/01/17 10:32:00;;;;;;;18.17;8.88;;;0.50;99.90;;;;;;5111253;28;20248;-52
2024/01/17 10:34:32;;;;;;;13.27;8.40;;;0.50;99.90;;;;;;5111565;28;20188;-52
2024/01/17 10:36:58;;;;;;;11.25;7.38;;;0.40;99.90;;;;;;5111580;28;20204;-53
2024/01/17 10:39:28;;;;;;;15.65;7.18;;;0.50;99.90;;;;;;5111831;28;20173;-52
2024/01/17 10:41:56;;;;;;;26.67;15.20;;;0.40;99.90;;;;;;5111238;28;20163;-52
2024/01/17 10:44:22;;;;;;;14.82;8.30;;;0.40;99.90;;;;;;5111276;28;20677;-52
2024/01/17 10:46:50;;;;;;;16.77;9.45;;;0.40;99.90;;;;;;5111181;28;20255;-55
2024/01/17 10:49:19;;;;;;;20.55;11.02;;;0.40;99.90;;;;;;5110995;28;20164;-52
2024/01/17 10:52:13;;;;;;;46.35;26.98;;;0.40;99.90;;;;;;5110904;28;20164;-51
2024/01/17 10:54:54;;;;;;;28.02;10.48;;;0.40;99.90;;;;;;5110888;28;20600;-49
2024/01/17 10:57:21;;;;;;;74.30;38.28;;;0.60;99.90;;;;;;5110621;28;20232;-47
2024/01/17 10:59:49;;;;;;;155.25;78.70;;;0.60;99.90;;;;;;5111168;28;20237;-50
2024/01/17 11:02:21;;;;;;;54.47;32.65;;;0.60;99.90;;;;;;5110811;28;20171;-53
2024/01/17 11:05:03;;;;;;;28.35;12.07;;;0.60;99.90;;;;;;5110846;28;20165;-52
2024/01/17 11:07:31;;;;;;;55.03;24.42;;;0.50;99.90;;;;;;5110952;28;20302;-54
2024/01/17 11:10:05;;;;;;;25.88;13.02;;;0.60;99.90;;;;;;5111263;28;20168;-52
2024/01/17 11:12:36;;;;;;;22.02;14.32;;;0.70;99.90;;;;;;5110804;27;20282;-53
2024/01/17 11:15:06;;;;;;;15.93;9.43;;;0.70;99.90;;;;;;5110496;28;20168;-52
2024/01/17 11:17:35;;;;;;;16.40;8.43;;;0.60;99.90;;;;;;5110600;28;20646;-52
2024/01/17 11:20:03;;;;;;;16.80;9.77;;;0.50;99.90;;;;;;5110449;28;20168;-53
2024/01/17 11:22:30;;;;;;;20.58;12.27;;;0.60;99.90;;;;;;5110351;28;20628;-52
2024/01/17 11:25:02;;;;;;;20.17;9.48;;;0.60;99.90;;;;;;5110361;28;20247;-52
2024/01/17 11:27:38;;;;;;;21.83;13.25;;;0.70;99.90;;;;;;5108967;28;20184;-52
2024/01/17 11:30:21;;;;;;;17.45;8.80;;;0.70;99.90;;;;;;5110954;28;20196;-53
2024/01/17 11:33:06;;;;;;;18.25;9.20;;;0.70;99.90;;;;;;5109109;28;20553;-52
2024/01/17 11:35:52;;;;;;;18.05;10.95;;;0.70;99.90;;;;;;5110102;28;20168;-51
2024/01/17 11:38:24;;;;;;;21.73;12.55;;;0.70;99.90;;;;;;5110371;28;20231;-52
2024/01/17 11:41:00;;;;;;;46.33;27.30;;;0.70;99.90;;;;;;5109522;28;20183;-52
2024/01/17 11:43:31;;;;;;;36.55;20.85;;;0.70;99.90;;;;;;5109618;28;20176;-52
2024/01/17 11:45:59;;;;;;;34.67;19.85;;;0.80;99.90;;;;;;5109820;28;20161;-52
2024/01/17 11:48:27;;;;;;;24.08;13.48;;;0.80;99.90;;;;;;5108794;28;20703;-54
2024/01/17 11:51:04;;;;;;;18.23;11.07;;;0.90;99.90;;;;;;5109948;28;20255;-57
2024/01/17 11:53:32;;;;;;;21.17;11.07;;;0.80;99.90;;;;;;5109756;28;20181;-53
2024/01/17 11:56:00;;;;;;;16.58;10.55;;;0.80;99.90;;;;;;5109365;28;20692;-52
2024/01/17 11:58:42;;;;;;;25.42;12.90;;;0.80;99.90;;;;;;5109962;28;20205;-52
2024/01/17 12:01:12;;;;;;;20.80;11.68;;;0.70;99.90;;;;;;5110301;28;20569;-53
2024/01/17 12:03:38;;;;;;;21.48;12.68;;;0.70;99.90;;;;;;5109774;28;20175;-53
2024/01/17 12:06:04;;;;;;;15.80;10.02;;;0.80;99.90;;;;;;5110098;28;20168;-52
2024/01/17 12:08:30;;;;;;;20.52;12.48;;;0.70;99.90;;;;;;5109391;28;20172;-53
2024/01/17 12:10:56;;;;;;;17.05;11.20;;;0.70;99.90;;;;;;5108477;28;20534;-54
2024/01/17 12:13:23;;;;;;;19.77;11.13;;;0.60;99.90;;;;;;5109741;28;20177;-52
2024/01/17 12:15:54;;;;;;;16.92;10.10;;;0.70;99.90;;;;;;5109219;28;20248;-52
2024/01/17 12:18:21;;;;;;;20.85;11.52;;;0.60;99.90;;;;;;5109769;28;20208;-51
2024/01/17 12:20:49;;;;;;;19.50;10.45;;;0.60;99.90;;;;;;5108438;28;20696;-53
2024/01/17 12:23:16;;;;;;;19.23;10.90;;;0.70;99.90;;;;;;5109469;28;20534;-52
2024/01/17 12:25:42;;;;;;;29.17;19.75;;;0.80;99.90;;;;;;5109549;28;20169;-56
2024/01/17 12:28:09;;;;;;;41.72;23.23;;;0.70;99.90;;;;;;5109491;28;20172;-53
2024/01/17 12:30:35;;;;;;;48.40;29.70;;;0.70;99.90;;;;;;5109999;28;20163;-56
2024/01/17 12:33:00;;;;;;;33.03;18.67;;;0.80;99.90;;;;;;5109842;28;20164;-55
2024/01/17 12:35:26;;;;;;;67.57;34.15;;;0.80;99.90;;;;;;5109495;28;20165;-57